createdAt,value
2017-10-21T00:00:39.216Z,54.41
2017-10-21T00:03:05.084Z,54.53
2017-10-21T00:05:30.852Z,54.30
2017-10-21T00:07:56.616Z,54.41
2017-10-21T00:10:22.370Z,54.19
2017-10-21T00:12:48.171Z,54.08
2017-10-21T00:15:13.930Z,54.00
2017-10-21T00:17:40.704Z,54.20
2017-10-21T00:20:06.687Z,54.30
2017-10-21T00:22:32.444Z,54.00
2017-10-21T00:24:58.188Z,54.46
2017-10-21T00:27:23.932Z,54.09
2017-10-21T00:29:50.749Z,53.81
2017-10-21T00:32:16.502Z,54.42
2017-10-21T00:34:42.244Z,54.16
2017-10-21T00:37:08.004Z,53.79
2017-10-21T00:39:33.763Z,54.30
2017-10-21T00:41:59.671Z,53.85
2017-10-21T00:44:25.423Z,54.16
2017-10-21T00:49:43.408Z,54.58
2017-10-21T00:52:09.194Z,54.28
2017-10-21T00:54:35.800Z,53.81
2017-10-21T00:57:01.563Z,53.75
2017-10-21T00:59:27.310Z,54.08
2017-10-21T01:01:54.039Z,54.06
2017-10-21T01:04:19.976Z,54.32
2017-10-21T01:06:45.732Z,54.09
2017-10-21T01:09:11.492Z,53.90
2017-10-21T01:11:37.238Z,53.84
2017-10-21T01:14:03.874Z,53.82
2017-10-21T01:16:29.684Z,54.18
2017-10-21T01:18:56.343Z,53.76
2017-10-21T01:21:22.103Z,53.65
2017-10-21T01:23:47.865Z,53.63
2017-10-21T01:26:13.619Z,53.72
2017-10-21T01:28:39.430Z,53.41
2017-10-21T01:31:05.191Z,53.66
2017-10-21T01:33:30.938Z,53.52
2017-10-21T01:35:57.640Z,53.71
2017-10-21T01:38:23.462Z,53.74
2017-10-21T01:40:49.205Z,54.14
2017-10-21T01:43:15.739Z,53.69
2017-10-21T01:45:41.564Z,53.45
2017-10-21T01:48:07.310Z,53.78
2017-10-21T01:50:33.115Z,53.97
2017-10-21T01:52:59.003Z,53.80
2017-10-21T01:55:25.832Z,53.71
2017-10-21T01:57:51.669Z,53.42
2017-10-21T02:00:17.433Z,53.83
2017-10-21T02:02:43.236Z,53.38
2017-10-21T02:05:10.364Z,53.04
2017-10-21T02:07:36.150Z,53.37
2017-10-21T02:10:02.727Z,53.25
2017-10-21T02:12:29.475Z,53.21
2017-10-21T02:14:56.456Z,52.87
2017-10-21T02:17:22.244Z,53.57
2017-10-21T02:19:48.995Z,53.49
2017-10-21T02:22:14.791Z,53.09
2017-10-21T02:24:40.556Z,53.40
2017-10-21T02:27:07.184Z,53.10
2017-10-21T02:29:32.967Z,53.02
2017-10-21T02:31:58.731Z,52.89
2017-10-21T02:34:24.544Z,53.04
2017-10-21T02:36:51.394Z,52.98
2017-10-21T02:39:17.215Z,53.05
2017-10-21T02:41:43.085Z,52.98
2017-10-21T02:44:09.607Z,53.05
2017-10-21T02:46:36.299Z,53.11
2017-10-21T02:49:02.245Z,53.20
2017-10-21T02:51:28.983Z,53.18
2017-10-21T02:53:54.744Z,52.99
2017-10-21T02:56:21.331Z,53.13
2017-10-21T02:58:47.096Z,53.09
2017-10-21T03:01:13.987Z,53.02
2017-10-21T03:03:39.745Z,52.67
2017-10-21T03:06:06.358Z,53.04
2017-10-21T03:08:32.108Z,52.93
2017-10-21T03:10:58.836Z,52.77
2017-10-21T03:13:24.616Z,52.62
2017-10-21T03:15:51.352Z,52.75
2017-10-21T03:18:17.131Z,52.78
2017-10-21T03:20:42.879Z,52.82
2017-10-21T03:23:09.460Z,52.96
2017-10-21T03:25:36.249Z,52.87
2017-10-21T03:28:02.181Z,53.09
2017-10-21T03:30:27.928Z,52.60
2017-10-21T03:32:53.675Z,52.58
2017-10-21T03:35:19.433Z,52.79
2017-10-21T03:37:46.051Z,52.37
2017-10-21T03:40:12.817Z,52.32
2017-10-21T03:42:39.540Z,52.87
2017-10-21T03:45:05.445Z,52.71
2017-10-21T03:47:31.224Z,52.41
2017-10-21T03:49:57.817Z,52.55
2017-10-21T03:52:23.570Z,52.66
2017-10-21T03:54:49.352Z,52.41
2017-10-21T03:57:16.095Z,52.58
2017-10-21T03:59:41.876Z,52.56
2017-10-21T04:02:07.624Z,52.58
2017-10-21T04:04:34.217Z,52.82
2017-10-21T04:06:59.963Z,52.66
2017-10-21T04:09:25.705Z,52.70
2017-10-21T04:11:51.459Z,52.21
2017-10-21T04:14:17.203Z,52.69
2017-10-21T04:16:42.957Z,52.45
2017-10-21T04:19:09.660Z,52.75
2017-10-21T04:21:35.409Z,52.67
2017-10-21T04:24:01.171Z,52.83
2017-10-21T04:26:27.882Z,52.52
2017-10-21T04:28:53.632Z,52.90
2017-10-21T04:31:19.379Z,52.66
2017-10-21T04:33:45.158Z,52.61
2017-10-21T04:36:11.045Z,52.41
2017-10-21T04:38:36.788Z,52.47
2017-10-21T04:41:02.585Z,52.31
2017-10-21T04:43:28.338Z,52.34
2017-10-21T04:45:54.088Z,52.21
2017-10-21T04:48:19.829Z,52.06
2017-10-21T04:50:45.568Z,52.22
2017-10-21T04:53:11.365Z,51.93
2017-10-21T04:55:37.139Z,52.39
2017-10-21T04:58:02.892Z,52.35
2017-10-21T05:00:28.643Z,52.41
2017-10-21T05:02:55.347Z,52.40
2017-10-21T05:05:21.105Z,51.64
2017-10-21T05:07:46.864Z,52.27
2017-10-21T05:10:12.647Z,51.77
2017-10-21T05:12:39.351Z,52.03
2017-10-21T05:15:05.129Z,51.90
2017-10-21T05:17:31.677Z,52.09
2017-10-21T05:19:58.392Z,52.18
2017-10-21T05:22:25.137Z,52.04
2017-10-21T05:24:50.871Z,52.07
2017-10-21T05:27:17.571Z,51.75
2017-10-21T05:29:44.293Z,52.40
2017-10-21T05:32:10.956Z,52.26
2017-10-21T05:34:37.687Z,52.36
2017-10-21T05:37:03.431Z,51.79
2017-10-21T05:39:29.216Z,51.98
2017-10-21T05:41:54.966Z,52.04
2017-10-21T05:44:20.770Z,51.97
2017-10-21T05:46:46.535Z,51.91
2017-10-21T05:49:12.290Z,52.45
2017-10-21T05:51:38.041Z,52.32
2017-10-21T05:54:09.841Z,52.36
2017-10-21T05:56:35.628Z,52.28
2017-10-21T05:59:01.379Z,51.94
2017-10-21T06:01:27.147Z,52.27
2017-10-21T06:03:53.077Z,52.23
2017-10-21T06:06:18.846Z,52.42
2017-10-21T06:08:44.854Z,52.09
2017-10-21T06:11:11.460Z,52.14
2017-10-21T06:13:37.220Z,52.25
2017-10-21T06:16:03.099Z,52.23
2017-10-21T06:18:28.873Z,52.18
2017-10-21T06:20:54.709Z,52.18
2017-10-21T06:23:21.273Z,52.02
2017-10-21T06:25:47.064Z,52.25
2017-10-21T06:28:12.807Z,52.07
2017-10-21T06:30:39.255Z,52.06
2017-10-21T06:33:05.895Z,51.89
2017-10-21T06:35:31.648Z,51.94
2017-10-21T06:37:57.449Z,52.31
2017-10-21T06:40:24.118Z,52.25
2017-10-21T06:42:50.918Z,52.47
2017-10-21T06:45:17.603Z,52.14
2017-10-21T06:47:43.544Z,52.38
2017-10-21T06:50:09.352Z,52.16
2017-10-21T06:52:35.126Z,52.27
2017-10-21T06:55:01.824Z,52.04
2017-10-21T06:57:28.671Z,51.99
2017-10-21T06:59:54.539Z,52.07
2017-10-21T07:02:21.122Z,51.92
2017-10-21T07:04:47.080Z,52.26
2017-10-21T07:07:12.837Z,52.03
2017-10-21T07:09:44.820Z,52.02
2017-10-21T07:12:12.012Z,52.20
2017-10-21T07:14:37.776Z,52.14
2017-10-21T07:17:03.596Z,52.08
2017-10-21T07:19:29.353Z,52.21
2017-10-21T07:21:55.109Z,52.37
2017-10-21T07:24:20.871Z,52.09
2017-10-21T07:26:47.602Z,52.61
2017-10-21T07:29:14.466Z,52.23
2017-10-21T07:31:41.120Z,52.56
2017-10-21T07:34:06.889Z,52.05
2017-10-21T07:36:32.644Z,52.44
2017-10-21T07:38:58.405Z,52.27
2017-10-21T07:41:24.226Z,52.58
2017-10-21T07:43:50.033Z,52.42
2017-10-21T07:46:15.945Z,52.16
2017-10-21T07:48:41.712Z,53.36
2017-10-21T07:51:07.584Z,52.26
2017-10-21T07:53:33.329Z,51.93
2017-10-21T07:55:59.090Z,51.69
2017-10-21T07:58:24.841Z,52.59
2017-10-21T08:00:50.652Z,52.54
2017-10-21T08:03:16.419Z,52.76
2017-10-21T08:05:42.167Z,52.33
2017-10-21T08:08:07.949Z,52.06
2017-10-21T08:10:33.712Z,51.95
2017-10-21T08:12:59.469Z,51.51
2017-10-21T08:15:25.238Z,51.82
2017-10-21T08:17:50.987Z,51.40
2017-10-21T08:20:19.642Z,51.37
2017-10-21T08:22:45.489Z,51.55
2017-10-21T08:25:11.430Z,51.27
2017-10-21T08:27:38.202Z,51.33
2017-10-21T08:30:04.776Z,51.83
2017-10-21T08:32:31.492Z,51.87
2017-10-21T08:34:57.287Z,51.62
2017-10-21T08:37:23.032Z,52.30
2017-10-21T08:39:49.842Z,51.51
2017-10-21T08:42:15.600Z,52.26
2017-10-21T08:44:42.289Z,52.22
2017-10-21T08:47:08.077Z,52.34
2017-10-21T08:49:33.904Z,51.85
2017-10-21T08:51:59.665Z,52.69
2017-10-21T08:54:25.456Z,52.64
2017-10-21T08:56:51.207Z,52.01
2017-10-21T08:59:17.004Z,51.82
2017-10-21T09:01:43.668Z,52.57
2017-10-21T09:04:09.411Z,52.10
2017-10-21T09:06:35.156Z,52.08
2017-10-21T09:09:00.913Z,51.16
2017-10-21T09:11:27.281Z,52.65
2017-10-21T09:13:53.900Z,52.29
2017-10-21T09:16:20.652Z,52.37
2017-10-21T09:18:47.437Z,52.06
2017-10-21T09:21:13.224Z,52.09
2017-10-21T09:23:39.781Z,52.62
2017-10-21T09:26:07.136Z,51.72
2017-10-21T09:28:32.929Z,52.44
2017-10-21T09:30:59.544Z,52.28
2017-10-21T09:33:26.285Z,52.68
2017-10-21T09:35:52.864Z,51.92
2017-10-21T09:38:19.540Z,51.73
2017-10-21T09:40:46.277Z,52.03
2017-10-21T09:43:12.084Z,51.79
2017-10-21T09:45:38.684Z,52.64
2017-10-21T09:48:04.470Z,51.71
2017-10-21T09:50:30.227Z,52.33
2017-10-21T09:52:56.944Z,51.74
2017-10-21T09:55:22.737Z,51.67
2017-10-21T09:57:49.196Z,51.85
2017-10-21T10:00:16.577Z,52.58
2017-10-21T10:02:42.323Z,52.50
2017-10-21T10:05:08.888Z,52.15
2017-10-21T10:07:34.688Z,52.85
2017-10-21T10:10:01.380Z,52.41
2017-10-21T10:12:27.124Z,52.73
2017-10-21T10:14:53.817Z,52.89
2017-10-21T10:17:21.579Z,52.77
2017-10-21T10:19:47.348Z,52.15
2017-10-21T10:22:13.980Z,52.33
2017-10-21T10:24:40.697Z,53.16
2017-10-21T10:27:06.455Z,52.87
2017-10-21T10:29:33.147Z,52.64
2017-10-21T10:31:59.032Z,52.12
2017-10-21T10:34:24.779Z,52.18
2017-10-21T10:36:51.358Z,51.58
2017-10-21T10:39:17.181Z,52.09
2017-10-21T10:41:42.946Z,52.12
2017-10-21T10:44:09.584Z,52.50
2017-10-21T10:46:36.459Z,52.04
2017-10-21T10:49:02.252Z,52.93
2017-10-21T10:51:28.968Z,51.75
2017-10-21T10:53:55.585Z,51.72
2017-10-21T10:56:21.391Z,52.04
2017-10-21T10:58:47.143Z,51.71
2017-10-21T11:01:14.023Z,52.01
2017-10-21T11:03:40.789Z,52.65
2017-10-21T11:06:06.549Z,52.09
2017-10-21T11:08:32.352Z,52.08
2017-10-21T11:10:59.098Z,51.95
2017-10-21T11:13:24.852Z,51.85
2017-10-21T11:15:50.732Z,51.83
2017-10-21T11:18:16.512Z,51.94
2017-10-21T11:20:43.250Z,51.37
2017-10-21T11:23:09.007Z,51.94
2017-10-21T11:25:35.637Z,52.05
2017-10-21T11:28:01.380Z,51.46
2017-10-21T11:30:27.285Z,51.87
2017-10-21T11:32:54.049Z,51.45
2017-10-21T11:35:19.808Z,51.05
2017-10-21T11:37:47.043Z,51.35
2017-10-21T11:40:12.804Z,51.46
2017-10-21T11:42:38.570Z,51.23
2017-10-21T11:45:04.340Z,51.75
2017-10-21T11:47:31.056Z,51.83
2017-10-21T11:49:56.812Z,51.69
2017-10-21T11:52:23.216Z,51.65
2017-10-21T11:54:49.064Z,51.67
2017-10-21T11:57:14.823Z,51.58
2017-10-21T11:59:40.699Z,51.36
2017-10-21T12:02:06.443Z,53.69
2017-10-21T12:04:32.231Z,53.24
2017-10-21T12:06:57.980Z,52.41
2017-10-21T12:09:24.799Z,51.91
2017-10-21T12:11:51.531Z,52.09
2017-10-21T12:14:17.464Z,52.31
2017-10-21T12:16:44.167Z,52.11
2017-10-21T12:19:09.908Z,52.56
2017-10-21T12:21:36.690Z,52.52
2017-10-21T12:24:02.476Z,52.53
2017-10-21T12:26:28.219Z,52.67
2017-10-21T12:28:53.964Z,52.68
2017-10-21T12:31:19.723Z,52.68
2017-10-21T12:33:45.524Z,52.64
2017-10-21T12:36:11.259Z,52.78
2017-10-21T12:38:37.034Z,52.90
2017-10-21T12:41:02.779Z,52.88
2017-10-21T12:43:28.529Z,53.02
2017-10-21T12:45:56.004Z,53.38
2017-10-21T12:48:21.789Z,52.88
2017-10-21T12:50:47.624Z,52.95
2017-10-21T12:53:13.368Z,52.91
2017-10-21T12:55:39.156Z,52.75
2017-10-21T12:58:06.061Z,52.87
2017-10-21T13:00:32.679Z,53.21
2017-10-21T13:02:58.460Z,52.89
2017-10-21T13:05:25.103Z,53.03
2017-10-21T13:07:51.011Z,53.19
2017-10-21T13:10:19.039Z,53.15
2017-10-21T13:12:45.661Z,53.38
2017-10-21T13:15:11.449Z,53.59
2017-10-21T13:17:38.087Z,53.14
2017-10-21T13:20:04.010Z,53.32
2017-10-21T13:22:30.745Z,53.23
2017-10-21T13:24:56.537Z,53.62
2017-10-21T13:27:23.343Z,53.63
2017-10-21T13:29:49.095Z,53.45
2017-10-21T13:32:14.998Z,53.59
2017-10-21T13:34:40.743Z,53.64
2017-10-21T13:37:06.695Z,53.17
2017-10-21T13:39:32.438Z,53.30
2017-10-21T13:41:59.172Z,53.87
2017-10-21T13:44:24.944Z,53.22
2017-10-21T13:46:50.684Z,53.22
2017-10-21T13:49:17.135Z,53.99
2017-10-21T13:51:43.824Z,53.51
2017-10-21T13:54:10.506Z,53.68
2017-10-21T13:56:37.270Z,53.96
2017-10-21T13:59:03.020Z,54.11
2017-10-21T14:01:28.758Z,54.00
2017-10-21T14:03:54.499Z,53.68
2017-10-21T14:06:20.324Z,53.84
2017-10-21T14:08:46.085Z,53.96
2017-10-21T14:11:11.999Z,53.87
2017-10-21T14:13:38.583Z,53.96
2017-10-21T14:16:04.334Z,53.73
2017-10-21T14:18:30.084Z,53.40
2017-10-21T14:20:56.819Z,54.00
2017-10-21T14:23:23.942Z,54.00
2017-10-21T14:25:49.697Z,53.67
2017-10-21T14:28:15.438Z,53.98
2017-10-21T14:30:41.200Z,53.91
2017-10-21T14:33:06.952Z,54.12
2017-10-21T14:35:33.741Z,53.92
2017-10-21T14:38:00.451Z,54.05
2017-10-21T14:40:26.187Z,53.89
2017-10-21T14:42:51.933Z,54.37
2017-10-21T14:45:17.688Z,53.81
2017-10-21T14:47:43.559Z,52.10
2017-10-21T14:50:09.878Z,52.13
2017-10-21T14:52:35.641Z,52.72
2017-10-21T14:55:01.445Z,53.08
2017-10-21T14:57:27.225Z,53.12
2017-10-21T14:59:53.083Z,53.75
2017-10-21T15:02:18.841Z,54.10
2017-10-21T15:04:44.728Z,54.66
2017-10-21T15:07:10.476Z,54.41
2017-10-21T15:09:37.175Z,54.46
2017-10-21T15:12:03.740Z,54.14
2017-10-21T15:14:29.507Z,54.69
2017-10-21T15:16:55.295Z,55.87
2017-10-21T15:19:21.040Z,55.11
2017-10-21T15:21:47.004Z,55.11
2017-10-21T15:24:12.813Z,55.49
2017-10-21T15:26:40.144Z,55.75
2017-10-21T15:29:05.899Z,56.39
2017-10-21T15:31:31.656Z,56.11
2017-10-21T15:33:57.409Z,55.99
2017-10-21T15:36:23.159Z,56.14
2017-10-21T15:38:48.940Z,56.29
2017-10-21T15:41:14.675Z,55.97
2017-10-21T15:43:41.408Z,54.94
2017-10-21T15:46:08.220Z,56.31
2017-10-21T15:48:33.997Z,56.66
2017-10-21T15:50:59.743Z,56.29
2017-10-21T15:53:25.491Z,56.10
2017-10-21T15:55:51.280Z,56.12
2017-10-21T15:58:17.161Z,56.26
2017-10-21T16:00:43.077Z,56.33
2017-10-21T16:03:09.350Z,56.57
2017-10-21T16:05:35.529Z,55.12
2017-10-21T16:08:01.785Z,56.02
2017-10-21T16:10:28.041Z,56.14
2017-10-21T16:12:54.097Z,56.07
2017-10-21T16:15:19.830Z,55.94
2017-10-21T16:17:45.616Z,56.16
2017-10-21T16:20:11.378Z,55.99
2017-10-21T16:22:37.122Z,56.03
2017-10-21T16:25:02.872Z,56.19
2017-10-21T16:27:29.403Z,55.27
2017-10-21T16:29:55.376Z,55.50
2017-10-21T16:32:21.262Z,55.92
2017-10-21T16:34:47.078Z,55.36
2017-10-21T16:37:12.977Z,55.22
2017-10-21T16:39:38.733Z,55.87
2017-10-21T16:42:05.364Z,55.40
2017-10-21T16:44:31.114Z,55.57
2017-10-21T16:46:56.889Z,54.86
2017-10-21T16:49:22.852Z,55.72
2017-10-21T16:51:48.605Z,55.81
2017-10-21T16:54:14.476Z,55.24
2017-10-21T16:56:40.422Z,54.87
2017-10-21T16:59:07.103Z,54.91
2017-10-21T17:01:32.967Z,55.03
2017-10-21T17:04:00.632Z,55.87
2017-10-21T17:06:26.435Z,55.07
2017-10-21T17:08:53.542Z,55.23
2017-10-21T17:11:19.297Z,55.39
2017-10-21T17:13:45.088Z,55.67
2017-10-21T17:16:10.860Z,56.41
2017-10-21T17:18:37.532Z,56.30
2017-10-21T17:21:03.292Z,56.53
2017-10-21T17:23:29.103Z,56.45
2017-10-21T17:25:55.080Z,56.71
2017-10-21T17:28:20.835Z,56.24
2017-10-21T17:30:46.595Z,56.59
2017-10-21T17:33:12.370Z,56.48
2017-10-21T17:35:38.150Z,55.25
2017-10-21T17:38:03.937Z,55.73
2017-10-21T17:40:29.797Z,56.45
2017-10-21T17:42:55.588Z,56.67
2017-10-21T17:45:21.351Z,56.60
2017-10-21T17:47:47.099Z,56.32
2017-10-21T17:50:12.852Z,56.47
2017-10-21T17:52:38.598Z,55.92
2017-10-21T17:55:04.351Z,55.96
2017-10-21T17:57:30.096Z,56.20
2017-10-21T17:59:55.937Z,55.74
2017-10-21T18:02:21.727Z,56.10
2017-10-21T18:04:47.479Z,55.68
2017-10-21T18:07:13.236Z,55.60
2017-10-21T18:09:39.030Z,55.40
2017-10-21T18:12:04.780Z,55.67
2017-10-21T18:14:30.529Z,55.37
2017-10-21T18:16:57.123Z,55.60
2017-10-21T18:19:22.879Z,56.01
2017-10-21T18:21:49.487Z,55.50
2017-10-21T18:24:15.235Z,55.34
2017-10-21T18:26:40.984Z,55.22
2017-10-21T18:29:06.740Z,55.54
2017-10-21T18:31:32.497Z,55.06
2017-10-21T18:33:58.334Z,55.35
2017-10-21T18:36:24.117Z,55.28
2017-10-21T18:38:49.940Z,55.27
2017-10-21T18:41:15.727Z,54.81
2017-10-21T18:43:41.525Z,55.50
2017-10-21T18:46:07.299Z,55.31
2017-10-21T18:48:33.100Z,55.55
2017-10-21T18:50:58.895Z,55.18
2017-10-21T18:53:24.826Z,55.35
2017-10-21T18:55:51.421Z,55.74
2017-10-21T18:58:17.168Z,55.36
2017-10-21T19:00:42.950Z,55.72
2017-10-21T19:03:08.744Z,55.44
2017-10-21T19:05:34.499Z,54.96
2017-10-21T19:08:00.365Z,55.83
2017-10-21T19:10:26.221Z,56.33
2017-10-21T19:12:51.960Z,55.58
2017-10-21T19:15:17.777Z,55.21
2017-10-21T19:17:48.954Z,55.43
2017-10-21T19:20:15.024Z,55.24
2017-10-21T19:22:41.215Z,55.50
2017-10-21T19:25:07.016Z,55.06
2017-10-21T19:27:39.062Z,55.55
2017-10-21T19:30:04.875Z,56.35
2017-10-21T19:32:30.921Z,55.28
2017-10-21T19:34:56.767Z,55.37
2017-10-21T19:37:22.517Z,56.12
2017-10-21T19:39:48.267Z,56.70
2017-10-21T19:42:14.012Z,56.89
2017-10-21T19:44:39.764Z,56.66
2017-10-21T19:47:05.621Z,56.59
2017-10-21T19:49:31.369Z,56.51
2017-10-21T19:51:57.127Z,56.44
2017-10-21T19:54:22.941Z,56.55
2017-10-21T19:56:49.724Z,56.75
2017-10-21T19:59:15.484Z,56.57
2017-10-21T20:01:41.357Z,56.69
2017-10-21T20:04:07.127Z,57.03
2017-10-21T20:06:32.898Z,56.87
2017-10-21T20:09:00.459Z,56.86
2017-10-21T20:11:26.356Z,56.88
2017-10-21T20:13:53.632Z,56.89
2017-10-21T20:16:20.371Z,56.84
2017-10-21T20:18:46.252Z,56.76
2017-10-21T20:21:12.032Z,56.71
2017-10-21T20:23:37.947Z,56.36
2017-10-21T20:26:03.741Z,56.19
2017-10-21T20:28:29.641Z,56.63
2017-10-21T20:30:55.492Z,56.55
2017-10-21T20:33:23.303Z,56.61
2017-10-21T20:35:49.071Z,56.72
2017-10-21T20:38:14.855Z,56.53
2017-10-21T20:40:40.616Z,56.44
2017-10-21T20:43:06.416Z,56.49
2017-10-21T20:45:32.206Z,56.63
2017-10-21T20:47:57.989Z,57.18
2017-10-21T20:50:26.657Z,56.57
2017-10-21T20:52:52.435Z,56.96
2017-10-21T20:55:18.204Z,56.41
2017-10-21T20:57:43.951Z,55.88
2017-10-21T21:00:09.704Z,56.46
2017-10-21T21:02:35.519Z,56.47
2017-10-21T21:05:01.270Z,56.28
2017-10-21T21:07:27.025Z,56.01
2017-10-21T21:09:52.828Z,56.56
2017-10-21T21:12:18.584Z,56.07
2017-10-21T21:14:45.181Z,55.94
2017-10-21T21:17:11.054Z,55.94
2017-10-21T21:19:36.819Z,56.37
2017-10-21T21:22:02.764Z,56.37
2017-10-21T21:24:29.698Z,56.37
2017-10-21T21:26:56.112Z,56.53
2017-10-21T21:29:21.866Z,56.13
2017-10-21T21:31:48.441Z,55.98
2017-10-21T21:34:15.029Z,55.70
2017-10-21T21:36:40.792Z,55.95
2017-10-21T21:39:06.597Z,56.61
2017-10-21T21:41:32.378Z,56.59
2017-10-21T21:43:58.133Z,56.69
2017-10-21T21:46:23.990Z,56.61
2017-10-21T21:48:49.763Z,56.04
2017-10-21T21:51:15.551Z,56.18
2017-10-21T21:53:41.327Z,56.04
2017-10-21T21:56:07.964Z,55.79
2017-10-21T21:58:33.741Z,56.63
2017-10-21T22:00:59.492Z,56.78
2017-10-21T22:03:25.417Z,56.88
2017-10-21T22:05:52.198Z,57.11
2017-10-21T22:08:18.112Z,57.39
2017-10-21T22:10:44.527Z,56.97
2017-10-21T22:13:10.328Z,57.25
2017-10-21T22:15:36.147Z,57.13
2017-10-21T22:18:01.906Z,57.16
2017-10-21T22:20:27.656Z,57.05
2017-10-21T22:22:53.503Z,57.16
2017-10-21T22:25:19.313Z,57.27
2017-10-21T22:27:45.284Z,57.24
2017-10-21T22:30:11.948Z,56.98
2017-10-21T22:32:37.709Z,57.51
2017-10-21T22:35:03.474Z,57.41
2017-10-21T22:37:29.251Z,57.35
2017-10-21T22:39:55.031Z,57.39
2017-10-21T22:42:20.780Z,57.01
2017-10-21T22:44:46.531Z,56.81
2017-10-21T22:47:12.304Z,57.23
2017-10-21T22:49:38.039Z,57.22
2017-10-21T22:52:04.805Z,57.00
2017-10-21T22:54:30.699Z,56.90
2017-10-21T22:56:56.456Z,56.51
2017-10-21T22:59:22.247Z,57.35
2017-10-21T23:01:47.991Z,57.09
2017-10-21T23:04:14.409Z,57.28
2017-10-21T23:06:40.164Z,57.56
2017-10-21T23:09:05.904Z,57.18
2017-10-21T23:11:32.638Z,57.02
2017-10-21T23:13:59.301Z,56.40
2017-10-21T23:16:25.980Z,57.20
2017-10-21T23:18:51.858Z,57.30
2017-10-21T23:21:17.813Z,57.40
2017-10-21T23:23:43.551Z,57.29
2017-10-21T23:26:09.422Z,57.25
2017-10-21T23:28:36.176Z,56.96
2017-10-21T23:31:01.931Z,57.39
2017-10-21T23:33:27.724Z,56.51
2017-10-21T23:35:53.483Z,56.91
2017-10-21T23:38:20.362Z,57.26
2017-10-21T23:40:46.113Z,56.93
2017-10-21T23:43:12.816Z,57.05
2017-10-21T23:45:39.422Z,56.94
2017-10-21T23:48:05.176Z,57.16
2017-10-21T23:50:30.936Z,57.29
2017-10-21T23:52:56.676Z,57.73
2017-10-21T23:55:23.368Z,57.50
2017-10-21T23:57:49.118Z,57.41
